sensor_id;sensor_type;location;lat;lon;timestamp;P1;durP1;ratioP1;P2;durP2;ratioP2
67747;SDS011;54543;50.712;6.070;2024-03-29T00:01:58;4.68;;;1.70;;
67747;SDS011;54543;50.712;6.070;2024-03-29T00:04:25;4.30;;;2.17;;
67747;SDS011;54543;50.712;6.070;2024-03-29T00:06:51;2.78;;;1.63;;
67747;SDS011;54543;50.712;6.070;2024-03-29T00:09:16;4.18;;;2.25;;
67747;SDS011;54543;50.712;6.070;2024-03-29T00:11:42;3.75;;;2.15;;
67747;SDS011;54543;50.712;6.070;2024-03-29T00:14:08;2.53;;;1.45;;
67747;SDS011;54543;50.712;6.070;2024-03-29T00:16:33;3.33;;;1.80;;
67747;SDS011;54543;50.712;6.070;2024-03-29T00:18:59;3.65;;;1.70;;
67747;SDS011;54543;50.712;6.070;2024-03-29T00:21:24;2.75;;;1.50;;
67747;SDS011;54543;50.712;6.070;2024-03-29T00:23:50;3.10;;;1.65;;
67747;SDS011;54543;50.712;6.070;2024-03-29T00:26:16;2.88;;;1.20;;
67747;SDS011;54543;50.712;6.070;2024-03-29T00:28:42;3.05;;;1.50;;
67747;SDS011;54543;50.712;6.070;2024-03-29T00:31:07;3.17;;;1.67;;
67747;SDS011;54543;50.712;6.070;2024-03-29T00:33:33;3.92;;;1.60;;
67747;SDS011;54543;50.712;6.070;2024-03-29T00:35:59;3.63;;;1.90;;
67747;SDS011;54543;50.712;6.070;2024-03-29T00:38:25;2.10;;;1.00;;
67747;SDS011;54543;50.712;6.070;2024-03-29T00:40:50;1.60;;;1.10;;
67747;SDS011;54543;50.712;6.070;2024-03-29T00:43:16;1.83;;;1.33;;
67747;SDS011;54543;50.712;6.070;2024-03-29T00:45:42;2.50;;;1.05;;
67747;SDS011;54543;50.712;6.070;2024-03-29T00:48:08;0.65;;;0.60;;
67747;SDS011;54543;50.712;6.070;2024-03-29T00:50:33;2.35;;;0.90;;
67747;SDS011;54543;50.712;6.070;2024-03-29T00:52:59;2.67;;;0.93;;
67747;SDS011;54543;50.712;6.070;2024-03-29T00:55:24;1.60;;;0.95;;
67747;SDS011;54543;50.712;6.070;2024-03-29T00:57:50;4.97;;;2.40;;
67747;SDS011;54543;50.712;6.070;2024-03-29T01:00:16;11.43;;;5.13;;
67747;SDS011;54543;50.712;6.070;2024-03-29T01:02:41;9.98;;;5.18;;
67747;SDS011;54543;50.712;6.070;2024-03-29T01:05:07;9.75;;;5.50;;
67747;SDS011;54543;50.712;6.070;2024-03-29T01:07:33;14.13;;;7.78;;
67747;SDS011;54543;50.712;6.070;2024-03-29T01:09:59;25.95;;;18.60;;
67747;SDS011;54543;50.712;6.070;2024-03-29T01:12:25;13.93;;;8.68;;
67747;SDS011;54543;50.712;6.070;2024-03-29T01:14:50;7.38;;;4.75;;
67747;SDS011;54543;50.712;6.070;2024-03-29T01:17:16;5.38;;;3.47;;
67747;SDS011;54543;50.712;6.070;2024-03-29T01:19:42;4.00;;;2.50;;
67747;SDS011;54543;50.712;6.070;2024-03-29T01:22:07;3.50;;;2.30;;
67747;SDS011;54543;50.712;6.070;2024-03-29T01:24:33;4.82;;;1.90;;
67747;SDS011;54543;50.712;6.070;2024-03-29T01:26:59;3.08;;;1.52;;
67747;SDS011;54543;50.712;6.070;2024-03-29T01:29:25;2.30;;;1.60;;
67747;SDS011;54543;50.712;6.070;2024-03-29T01:31:50;1.73;;;1.15;;
67747;SDS011;54543;50.712;6.070;2024-03-29T01:34:16;1.95;;;1.10;;
67747;SDS011;54543;50.712;6.070;2024-03-29T01:36:42;2.05;;;1.05;;
67747;SDS011;54543;50.712;6.070;2024-03-29T01:39:08;2.05;;;0.95;;
67747;SDS011;54543;50.712;6.070;2024-03-29T01:41:39;3.67;;;1.10;;
67747;SDS011;54543;50.712;6.070;2024-03-29T01:44:04;1.70;;;1.35;;
67747;SDS011;54543;50.712;6.070;2024-03-29T01:46:30;1.58;;;0.88;;
67747;SDS011;54543;50.712;6.070;2024-03-29T01:49:00;1.83;;;0.90;;
67747;SDS011;54543;50.712;6.070;2024-03-29T01:51:26;1.85;;;1.20;;
67747;SDS011;54543;50.712;6.070;2024-03-29T01:53:53;1.52;;;1.00;;
67747;SDS011;54543;50.712;6.070;2024-03-29T01:56:22;1.88;;;0.90;;
67747;SDS011;54543;50.712;6.070;2024-03-29T01:58:49;2.03;;;1.00;;
67747;SDS011;54543;50.712;6.070;2024-03-29T02:01:16;1.80;;;1.08;;
67747;SDS011;54543;50.712;6.070;2024-03-29T02:03:42;1.42;;;1.08;;
67747;SDS011;54543;50.712;6.070;2024-03-29T02:06:08;1.45;;;0.90;;
67747;SDS011;54543;50.712;6.070;2024-03-29T02:08:35;1.65;;;1.00;;
67747;SDS011;54543;50.712;6.070;2024-03-29T02:11:01;1.33;;;0.68;;
67747;SDS011;54543;50.712;6.070;2024-03-29T02:13:28;0.90;;;0.70;;
67747;SDS011;54543;50.712;6.070;2024-03-29T02:15:53;1.95;;;1.00;;
67747;SDS011;54543;50.712;6.070;2024-03-29T02:18:19;1.33;;;0.80;;
67747;SDS011;54543;50.712;6.070;2024-03-29T02:20:45;1.30;;;0.90;;
67747;SDS011;54543;50.712;6.070;2024-03-29T02:23:14;1.38;;;0.60;;
67747;SDS011;54543;50.712;6.070;2024-03-29T02:25:43;1.13;;;0.70;;
67747;SDS011;54543;50.712;6.070;2024-03-29T02:28:09;0.80;;;0.80;;
67747;SDS011;54543;50.712;6.070;2024-03-29T02:30:34;1.05;;;0.82;;
67747;SDS011;54543;50.712;6.070;2024-03-29T02:33:00;1.20;;;0.70;;
67747;SDS011;54543;50.712;6.070;2024-03-29T02:35:26;1.08;;;0.60;;
67747;SDS011;54543;50.712;6.070;2024-03-29T02:37:52;0.90;;;0.63;;
67747;SDS011;54543;50.712;6.070;2024-03-29T02:40:18;0.93;;;0.60;;
67747;SDS011;54543;50.712;6.070;2024-03-29T02:42:44;2.10;;;0.55;;
67747;SDS011;54543;50.712;6.070;2024-03-29T02:45:10;0.98;;;0.47;;
67747;SDS011;54543;50.712;6.070;2024-03-29T02:47:36;2.83;;;0.80;;
67747;SDS011;54543;50.712;6.070;2024-03-29T02:50:01;1.15;;;0.77;;
67747;SDS011;54543;50.712;6.070;2024-03-29T02:52:28;0.68;;;0.60;;
67747;SDS011;54543;50.712;6.070;2024-03-29T02:54:54;1.40;;;0.60;;
67747;SDS011;54543;50.712;6.070;2024-03-29T02:57:20;0.88;;;0.60;;
67747;SDS011;54543;50.712;6.070;2024-03-29T02:59:45;1.08;;;0.65;;
67747;SDS011;54543;50.712;6.070;2024-03-29T03:02:11;1.00;;;0.50;;
67747;SDS011;54543;50.712;6.070;2024-03-29T03:04:37;2.15;;;0.63;;
67747;SDS011;54543;50.712;6.070;2024-03-29T03:07:02;1.63;;;0.50;;
67747;SDS011;54543;50.712;6.070;2024-03-29T03:09:51;0.50;;;0.50;;
67747;SDS011;54543;50.712;6.070;2024-03-29T03:12:35;0.65;;;0.45;;
67747;SDS011;54543;50.712;6.070;2024-03-29T03:15:01;0.95;;;0.60;;
67747;SDS011;54543;50.712;6.070;2024-03-29T03:17:27;0.70;;;0.60;;
67747;SDS011;54543;50.712;6.070;2024-03-29T03:19:53;1.17;;;0.85;;
67747;SDS011;54543;50.712;6.070;2024-03-29T03:22:19;1.95;;;0.70;;
67747;SDS011;54543;50.712;6.070;2024-03-29T03:24:45;0.63;;;0.60;;
67747;SDS011;54543;50.712;6.070;2024-03-29T03:27:10;2.30;;;1.08;;
67747;SDS011;54543;50.712;6.070;2024-03-29T03:29:36;1.90;;;0.68;;
67747;SDS011;54543;50.712;6.070;2024-03-29T03:32:02;0.70;;;0.50;;
67747;SDS011;54543;50.712;6.070;2024-03-29T03:34:28;1.15;;;0.63;;
67747;SDS011;54543;50.712;6.070;2024-03-29T03:36:54;1.48;;;0.63;;
67747;SDS011;54543;50.712;6.070;2024-03-29T03:39:19;0.75;;;0.40;;
67747;SDS011;54543;50.712;6.070;2024-03-29T03:41:45;0.93;;;0.43;;
67747;SDS011;54543;50.712;6.070;2024-03-29T03:44:12;0.95;;;0.50;;
67747;SDS011;54543;50.712;6.070;2024-03-29T03:46:37;0.73;;;0.50;;
67747;SDS011;54543;50.712;6.070;2024-03-29T03:49:03;1.33;;;0.50;;
67747;SDS011;54543;50.712;6.070;2024-03-29T03:51:28;1.52;;;0.50;;
67747;SDS011;54543;50.712;6.070;2024-03-29T03:53:54;0.40;;;0.40;;
67747;SDS011;54543;50.712;6.070;2024-03-29T03:56:20;0.75;;;0.40;;
67747;SDS011;54543;50.712;6.070;2024-03-29T03:58:45;0.63;;;0.52;;
67747;SDS011;54543;50.712;6.070;2024-03-29T04:01:11;0.52;;;0.50;;
67747;SDS011;54543;50.712;6.070;2024-03-29T04:03:37;0.80;;;0.45;;
67747;SDS011;54543;50.712;6.070;2024-03-29T04:06:05;1.75;;;0.60;;
67747;SDS011;54543;50.712;6.070;2024-03-29T04:08:31;3.50;;;0.65;;
67747;SDS011;54543;50.712;6.070;2024-03-29T04:10:56;0.93;;;0.50;;
67747;SDS011;54543;50.712;6.070;2024-03-29T04:13:22;1.60;;;0.45;;
67747;SDS011;54543;50.712;6.070;2024-03-29T04:15:48;0.68;;;0.50;;
67747;SDS011;54543;50.712;6.070;2024-03-29T04:18:13;2.30;;;0.60;;
67747;SDS011;54543;50.712;6.070;2024-03-29T04:20:39;3.08;;;0.70;;
67747;SDS011;54543;50.712;6.070;2024-03-29T04:23:05;0.60;;;0.52;;
67747;SDS011;54543;50.712;6.070;2024-03-29T04:25:31;1.65;;;0.60;;
67747;SDS011;54543;50.712;6.070;2024-03-29T04:27:58;1.10;;;0.50;;
67747;SDS011;54543;50.712;6.070;2024-03-29T04:30:24;0.60;;;0.60;;
67747;SDS011;54543;50.712;6.070;2024-03-29T04:32:49;0.70;;;0.57;;
67747;SDS011;54543;50.712;6.070;2024-03-29T04:35:15;0.50;;;0.50;;
67747;SDS011;54543;50.712;6.070;2024-03-29T04:37:41;2.25;;;0.80;;
67747;SDS011;54543;50.712;6.070;2024-03-29T04:40:06;1.23;;;0.65;;
67747;SDS011;54543;50.712;6.070;2024-03-29T04:42:32;2.67;;;0.60;;
67747;SDS011;54543;50.712;6.070;2024-03-29T04:44:58;0.80;;;0.60;;
67747;SDS011;54543;50.712;6.070;2024-03-29T04:47:23;0.98;;;0.80;;
67747;SDS011;54543;50.712;6.070;2024-03-29T04:49:49;0.88;;;0.50;;
67747;SDS011;54543;50.712;6.070;2024-03-29T04:52:15;0.68;;;0.68;;
67747;SDS011;54543;50.712;6.070;2024-03-29T04:54:40;1.52;;;0.60;;
67747;SDS011;54543;50.712;6.070;2024-03-29T04:57:06;2.85;;;0.77;;
67747;SDS011;54543;50.712;6.070;2024-03-29T04:59:32;1.45;;;0.80;;
67747;SDS011;54543;50.712;6.070;2024-03-29T05:01:58;2.08;;;0.70;;
67747;SDS011;54543;50.712;6.070;2024-03-29T05:04:24;2.55;;;1.60;;
67747;SDS011;54543;50.712;6.070;2024-03-29T05:06:59;2.22;;;0.90;;
67747;SDS011;54543;50.712;6.070;2024-03-29T05:09:25;2.50;;;0.98;;
67747;SDS011;54543;50.712;6.070;2024-03-29T05:11:51;0.60;;;0.60;;
67747;SDS011;54543;50.712;6.070;2024-03-29T05:14:18;2.63;;;1.75;;
67747;SDS011;54543;50.712;6.070;2024-03-29T05:16:45;4.88;;;3.00;;
67747;SDS011;54543;50.712;6.070;2024-03-29T05:19:11;4.53;;;2.28;;
67747;SDS011;54543;50.712;6.070;2024-03-29T05:21:38;6.60;;;4.00;;
67747;SDS011;54543;50.712;6.070;2024-03-29T05:24:04;14.23;;;8.27;;
67747;SDS011;54543;50.712;6.070;2024-03-29T05:26:30;10.88;;;7.35;;
67747;SDS011;54543;50.712;6.070;2024-03-29T05:28:56;15.80;;;9.93;;
67747;SDS011;54543;50.712;6.070;2024-03-29T05:31:23;16.08;;;10.40;;
67747;SDS011;54543;50.712;6.070;2024-03-29T05:33:50;8.93;;;6.13;;
67747;SDS011;54543;50.712;6.070;2024-03-29T05:36:15;8.77;;;5.55;;
67747;SDS011;54543;50.712;6.070;2024-03-29T05:38:41;9.45;;;6.03;;
67747;SDS011;54543;50.712;6.070;2024-03-29T05:41:07;9.30;;;6.70;;
67747;SDS011;54543;50.712;6.070;2024-03-29T05:43:33;19.23;;;11.13;;
67747;SDS011;54543;50.712;6.070;2024-03-29T05:45:59;19.27;;;12.77;;
67747;SDS011;54543;50.712;6.070;2024-03-29T05:48:28;20.55;;;13.60;;
67747;SDS011;54543;50.712;6.070;2024-03-29T05:50:54;17.65;;;12.02;;
67747;SDS011;54543;50.712;6.070;2024-03-29T05:53:19;13.68;;;9.60;;
67747;SDS011;54543;50.712;6.070;2024-03-29T05:55:45;29.67;;;17.52;;
67747;SDS011;54543;50.712;6.070;2024-03-29T05:58:10;24.00;;;16.58;;
67747;SDS011;54543;50.712;6.070;2024-03-29T06:00:41;25.25;;;16.23;;
67747;SDS011;54543;50.712;6.070;2024-03-29T06:03:07;26.65;;;18.63;;
67747;SDS011;54543;50.712;6.070;2024-03-29T06:05:32;20.00;;;13.88;;
67747;SDS011;54543;50.712;6.070;2024-03-29T06:07:58;22.73;;;15.68;;
67747;SDS011;54543;50.712;6.070;2024-03-29T06:10:23;26.60;;;18.48;;
67747;SDS011;54543;50.712;6.070;2024-03-29T06:12:49;19.55;;;13.70;;
67747;SDS011;54543;50.712;6.070;2024-03-29T06:15:15;21.42;;;12.48;;
67747;SDS011;54543;50.712;6.070;2024-03-29T06:17:59;20.88;;;13.18;;
67747;SDS011;54543;50.712;6.070;2024-03-29T06:20:25;11.32;;;7.43;;
67747;SDS011;54543;50.712;6.070;2024-03-29T06:22:50;18.63;;;11.90;;
67747;SDS011;54543;50.712;6.070;2024-03-29T06:25:16;12.18;;;7.03;;
67747;SDS011;54543;50.712;6.070;2024-03-29T06:27:42;12.57;;;8.20;;
67747;SDS011;54543;50.712;6.070;2024-03-29T06:30:14;12.02;;;6.15;;
67747;SDS011;54543;50.712;6.070;2024-03-29T06:32:42;12.80;;;7.70;;
67747;SDS011;54543;50.712;6.070;2024-03-29T06:35:10;14.27;;;10.07;;
67747;SDS011;54543;50.712;6.070;2024-03-29T06:37:36;16.73;;;10.98;;
67747;SDS011;54543;50.712;6.070;2024-03-29T06:40:01;18.73;;;11.02;;
67747;SDS011;54543;50.712;6.070;2024-03-29T06:42:28;10.45;;;7.00;;
67747;SDS011;54543;50.712;6.070;2024-03-29T06:44:53;10.75;;;6.28;;
67747;SDS011;54543;50.712;6.070;2024-03-29T06:47:19;14.88;;;7.32;;
67747;SDS011;54543;50.712;6.070;2024-03-29T06:49:45;9.85;;;5.13;;
67747;SDS011;54543;50.712;6.070;2024-03-29T06:52:11;5.95;;;4.40;;
67747;SDS011;54543;50.712;6.070;2024-03-29T06:54:37;5.60;;;3.58;;
67747;SDS011;54543;50.712;6.070;2024-03-29T06:57:02;5.22;;;2.92;;
67747;SDS011;54543;50.712;6.070;2024-03-29T06:59:28;4.72;;;2.80;;
67747;SDS011;54543;50.712;6.070;2024-03-29T07:01:54;6.28;;;2.65;;
67747;SDS011;54543;50.712;6.070;2024-03-29T07:04:23;5.32;;;3.05;;
67747;SDS011;54543;50.712;6.070;2024-03-29T07:06:50;4.82;;;2.75;;
67747;SDS011;54543;50.712;6.070;2024-03-29T07:09:22;3.63;;;2.22;;
67747;SDS011;54543;50.712;6.070;2024-03-29T07:11:48;5.50;;;2.25;;
67747;SDS011;54543;50.712;6.070;2024-03-29T07:14:16;4.05;;;2.35;;
67747;SDS011;54543;50.712;6.070;2024-03-29T07:16:42;3.60;;;1.98;;
67747;SDS011;54543;50.712;6.070;2024-03-29T07:19:09;3.35;;;2.08;;
67747;SDS011;54543;50.712;6.070;2024-03-29T07:21:37;3.15;;;2.05;;
67747;SDS011;54543;50.712;6.070;2024-03-29T07:24:06;3.35;;;1.88;;
67747;SDS011;54543;50.712;6.070;2024-03-29T07:26:32;3.20;;;1.90;;
67747;SDS011;54543;50.712;6.070;2024-03-29T07:28:58;2.97;;;1.50;;
67747;SDS011;54543;50.712;6.070;2024-03-29T07:31:24;3.10;;;1.83;;
67747;SDS011;54543;50.712;6.070;2024-03-29T07:33:49;2.15;;;1.50;;
67747;SDS011;54543;50.712;6.070;2024-03-29T07:36:15;2.92;;;1.75;;
67747;SDS011;54543;50.712;6.070;2024-03-29T07:38:42;2.67;;;1.17;;
67747;SDS011;54543;50.712;6.070;2024-03-29T07:41:09;3.40;;;1.27;;
67747;SDS011;54543;50.712;6.070;2024-03-29T07:43:39;1.45;;;0.90;;
67747;SDS011;54543;50.712;6.070;2024-03-29T07:46:05;2.47;;;1.35;;
67747;SDS011;54543;50.712;6.070;2024-03-29T07:48:33;2.88;;;1.40;;
67747;SDS011;54543;50.712;6.070;2024-03-29T07:51:00;2.75;;;1.45;;
67747;SDS011;54543;50.712;6.070;2024-03-29T07:53:25;4.20;;;1.58;;
67747;SDS011;54543;50.712;6.070;2024-03-29T07:55:51;1.80;;;1.10;;
67747;SDS011;54543;50.712;6.070;2024-03-29T07:58:16;1.85;;;1.08;;
67747;SDS011;54543;50.712;6.070;2024-03-29T08:00:42;2.05;;;0.98;;
67747;SDS011;54543;50.712;6.070;2024-03-29T08:03:09;2.33;;;1.30;;
67747;SDS011;54543;50.712;6.070;2024-03-29T08:05:36;2.38;;;1.50;;
67747;SDS011;54543;50.712;6.070;2024-03-29T08:08:02;4.40;;;2.58;;
67747;SDS011;54543;50.712;6.070;2024-03-29T08:10:28;7.22;;;4.72;;
67747;SDS011;54543;50.712;6.070;2024-03-29T08:12:54;4.47;;;2.35;;
67747;SDS011;54543;50.712;6.070;2024-03-29T08:15:20;5.72;;;3.00;;
67747;SDS011;54543;50.712;6.070;2024-03-29T08:17:46;3.80;;;1.75;;
67747;SDS011;54543;50.712;6.070;2024-03-29T08:20:11;4.32;;;2.17;;
67747;SDS011;54543;50.712;6.070;2024-03-29T08:22:37;5.10;;;2.90;;
67747;SDS011;54543;50.712;6.070;2024-03-29T08:25:03;3.58;;;1.88;;
67747;SDS011;54543;50.712;6.070;2024-03-29T08:27:28;5.00;;;2.70;;
67747;SDS011;54543;50.712;6.070;2024-03-29T08:29:54;4.43;;;2.83;;
67747;SDS011;54543;50.712;6.070;2024-03-29T08:32:20;4.32;;;2.20;;
67747;SDS011;54543;50.712;6.070;2024-03-29T08:34:46;4.05;;;2.63;;
67747;SDS011;54543;50.712;6.070;2024-03-29T08:37:11;4.22;;;2.38;;
67747;SDS011;54543;50.712;6.070;2024-03-29T08:39:37;5.72;;;2.65;;
67747;SDS011;54543;50.712;6.070;2024-03-29T08:42:05;5.35;;;2.97;;
67747;SDS011;54543;50.712;6.070;2024-03-29T08:44:33;4.68;;;2.75;;
67747;SDS011;54543;50.712;6.070;2024-03-29T08:46:59;3.90;;;2.28;;
67747;SDS011;54543;50.712;6.070;2024-03-29T08:49:28;6.68;;;2.95;;
67747;SDS011;54543;50.712;6.070;2024-03-29T08:51:54;6.05;;;2.90;;
67747;SDS011;54543;50.712;6.070;2024-03-29T08:54:20;4.38;;;2.78;;
67747;SDS011;54543;50.712;6.070;2024-03-29T08:56:46;4.05;;;2.50;;
67747;SDS011;54543;50.712;6.070;2024-03-29T08:59:12;3.67;;;2.10;;
67747;SDS011;54543;50.712;6.070;2024-03-29T09:01:41;4.57;;;2.42;;
67747;SDS011;54543;50.712;6.070;2024-03-29T09:04:09;3.95;;;1.95;;
67747;SDS011;54543;50.712;6.070;2024-03-29T09:06:38;3.30;;;1.95;;
67747;SDS011;54543;50.712;6.070;2024-03-29T09:09:04;4.28;;;2.55;;
67747;SDS011;54543;50.712;6.070;2024-03-29T09:11:30;7.93;;;4.50;;
67747;SDS011;54543;50.712;6.070;2024-03-29T09:13:56;11.40;;;5.38;;
67747;SDS011;54543;50.712;6.070;2024-03-29T09:16:26;9.88;;;6.28;;
67747;SDS011;54543;50.712;6.070;2024-03-29T09:18:56;8.07;;;4.68;;
67747;SDS011;54543;50.712;6.070;2024-03-29T09:21:22;10.10;;;4.60;;
67747;SDS011;54543;50.712;6.070;2024-03-29T09:23:48;10.88;;;6.15;;
67747;SDS011;54543;50.712;6.070;2024-03-29T09:26:16;6.57;;;4.63;;
67747;SDS011;54543;50.712;6.070;2024-03-29T09:28:42;8.85;;;5.53;;
67747;SDS011;54543;50.712;6.070;2024-03-29T09:31:07;6.50;;;3.50;;
67747;SDS011;54543;50.712;6.070;2024-03-29T09:33:33;6.72;;;3.70;;
67747;SDS011;54543;50.712;6.070;2024-03-29T09:35:59;6.18;;;4.10;;
67747;SDS011;54543;50.712;6.070;2024-03-29T09:38:25;9.32;;;5.80;;
67747;SDS011;54543;50.712;6.070;2024-03-29T09:40:52;7.43;;;3.67;;
67747;SDS011;54543;50.712;6.070;2024-03-29T09:43:43;8.77;;;5.93;;
67747;SDS011;54543;50.712;6.070;2024-03-29T09:46:12;11.80;;;6.53;;
67747;SDS011;54543;50.712;6.070;2024-03-29T09:48:39;12.32;;;8.20;;
67747;SDS011;54543;50.712;6.070;2024-03-29T09:51:05;28.73;;;19.00;;
67747;SDS011;54543;50.712;6.070;2024-03-29T09:53:36;21.42;;;13.35;;
67747;SDS011;54543;50.712;6.070;2024-03-29T09:56:03;29.23;;;14.80;;
67747;SDS011;54543;50.712;6.070;2024-03-29T09:58:36;23.25;;;11.73;;
67747;SDS011;54543;50.712;6.070;2024-03-29T10:01:03;14.32;;;7.65;;
67747;SDS011;54543;50.712;6.070;2024-03-29T10:03:29;34.70;;;13.23;;
67747;SDS011;54543;50.712;6.070;2024-03-29T10:05:56;23.52;;;11.65;;
67747;SDS011;54543;50.712;6.070;2024-03-29T10:08:29;24.83;;;9.48;;
67747;SDS011;54543;50.712;6.070;2024-03-29T10:10:56;38.22;;;14.38;;
67747;SDS011;54543;50.712;6.070;2024-03-29T10:13:22;24.52;;;10.43;;
67747;SDS011;54543;50.712;6.070;2024-03-29T10:15:49;9.07;;;5.18;;
67747;SDS011;54543;50.712;6.070;2024-03-29T10:18:23;10.55;;;4.32;;
67747;SDS011;54543;50.712;6.070;2024-03-29T10:21:00;7.57;;;3.40;;
67747;SDS011;54543;50.712;6.070;2024-03-29T10:23:27;12.43;;;5.40;;
67747;SDS011;54543;50.712;6.070;2024-03-29T10:25:53;8.05;;;4.57;;
67747;SDS011;54543;50.712;6.070;2024-03-29T10:28:19;6.78;;;3.78;;
67747;SDS011;54543;50.712;6.070;2024-03-29T10:30:45;9.75;;;4.75;;
67747;SDS011;54543;50.712;6.070;2024-03-29T10:33:11;12.93;;;4.60;;
67747;SDS011;54543;50.712;6.070;2024-03-29T10:35:41;6.53;;;3.30;;
67747;SDS011;54543;50.712;6.070;2024-03-29T10:38:08;4.35;;;2.35;;
67747;SDS011;54543;50.712;6.070;2024-03-29T10:40:35;4.60;;;1.85;;
67747;SDS011;54543;50.712;6.070;2024-03-29T10:43:09;4.47;;;2.25;;
67747;SDS011;54543;50.712;6.070;2024-03-29T10:45:39;4.90;;;2.05;;
67747;SDS011;54543;50.712;6.070;2024-03-29T10:48:05;5.82;;;2.75;;
67747;SDS011;54543;50.712;6.070;2024-03-29T10:50:35;8.40;;;4.15;;
67747;SDS011;54543;50.712;6.070;2024-03-29T10:53:01;9.15;;;4.65;;
67747;SDS011;54543;50.712;6.070;2024-03-29T10:55:30;7.70;;;3.33;;
67747;SDS011;54543;50.712;6.070;2024-03-29T10:57:59;10.10;;;3.83;;
67747;SDS011;54543;50.712;6.070;2024-03-29T11:00:28;5.00;;;2.67;;
67747;SDS011;54543;50.712;6.070;2024-03-29T11:05:49;3.78;;;1.83;;
67747;SDS011;54543;50.712;6.070;2024-03-29T11:08:26;1.95;;;1.17;;
67747;SDS011;54543;50.712;6.070;2024-03-29T11:10:57;4.22;;;1.88;;
67747;SDS011;54543;50.712;6.070;2024-03-29T11:16:06;1.70;;;0.82;;
67747;SDS011;54543;50.712;6.070;2024-03-29T11:18:32;2.55;;;1.02;;
67747;SDS011;54543;50.712;6.070;2024-03-29T11:20:59;7.45;;;3.78;;
67747;SDS011;54543;50.712;6.070;2024-03-29T11:23:27;6.47;;;2.83;;
67747;SDS011;54543;50.712;6.070;2024-03-29T11:25:53;5.82;;;3.40;;
67747;SDS011;54543;50.712;6.070;2024-03-29T11:30:49;7.95;;;3.95;;
67747;SDS011;54543;50.712;6.070;2024-03-29T11:33:34;7.43;;;3.92;;
67747;SDS011;54543;50.712;6.070;2024-03-29T11:38:39;3.55;;;1.45;;
67747;SDS011;54543;50.712;6.070;2024-03-29T11:41:07;3.75;;;1.40;;
67747;SDS011;54543;50.712;6.070;2024-03-29T11:43:35;3.67;;;1.90;;
67747;SDS011;54543;50.712;6.070;2024-03-29T11:46:05;6.07;;;2.00;;
67747;SDS011;54543;50.712;6.070;2024-03-29T11:48:33;4.13;;;1.55;;
67747;SDS011;54543;50.712;6.070;2024-03-29T11:51:00;3.83;;;1.90;;
67747;SDS011;54543;50.712;6.070;2024-03-29T11:53:28;1.95;;;1.48;;
67747;SDS011;54543;50.712;6.070;2024-03-29T11:55:55;1.92;;;1.13;;
67747;SDS011;54543;50.712;6.070;2024-03-29T11:58:24;5.18;;;3.08;;
67747;SDS011;54543;50.712;6.070;2024-03-29T12:00:52;5.15;;;2.10;;
67747;SDS011;54543;50.712;6.070;2024-03-29T12:03:19;8.30;;;4.40;;
67747;SDS011;54543;50.712;6.070;2024-03-29T12:05:48;6.65;;;3.78;;
67747;SDS011;54543;50.712;6.070;2024-03-29T12:08:15;6.22;;;2.80;;
67747;SDS011;54543;50.712;6.070;2024-03-29T12:10:41;6.53;;;3.45;;
67747;SDS011;54543;50.712;6.070;2024-03-29T12:13:08;9.02;;;4.85;;
67747;SDS011;54543;50.712;6.070;2024-03-29T12:15:34;10.32;;;4.93;;
67747;SDS011;54543;50.712;6.070;2024-03-29T12:18:00;7.68;;;4.57;;
67747;SDS011;54543;50.712;6.070;2024-03-29T12:20:31;7.85;;;4.35;;
67747;SDS011;54543;50.712;6.070;2024-03-29T12:23:00;6.53;;;3.50;;
67747;SDS011;54543;50.712;6.070;2024-03-29T12:25:31;5.70;;;3.35;;
67747;SDS011;54543;50.712;6.070;2024-03-29T12:27:58;5.53;;;3.35;;
67747;SDS011;54543;50.712;6.070;2024-03-29T12:30:24;6.75;;;3.15;;
67747;SDS011;54543;50.712;6.070;2024-03-29T12:33:03;5.88;;;3.65;;
67747;SDS011;54543;50.712;6.070;2024-03-29T12:35:31;6.47;;;3.08;;
67747;SDS011;54543;50.712;6.070;2024-03-29T12:38:02;5.82;;;2.85;;
67747;SDS011;54543;50.712;6.070;2024-03-29T12:40:29;5.30;;;2.75;;
67747;SDS011;54543;50.712;6.070;2024-03-29T12:43:01;7.75;;;4.03;;
67747;SDS011;54543;50.712;6.070;2024-03-29T12:45:28;4.88;;;3.33;;
67747;SDS011;54543;50.712;6.070;2024-03-29T12:47:54;7.53;;;4.43;;
67747;SDS011;54543;50.712;6.070;2024-03-29T12:50:24;6.00;;;3.42;;
67747;SDS011;54543;50.712;6.070;2024-03-29T12:53:00;5.85;;;3.65;;
67747;SDS011;54543;50.712;6.070;2024-03-29T12:55:31;5.53;;;3.25;;
67747;SDS011;54543;50.712;6.070;2024-03-29T12:58:00;8.60;;;4.10;;
67747;SDS011;54543;50.712;6.070;2024-03-29T13:00:28;6.63;;;3.45;;
67747;SDS011;54543;50.712;6.070;2024-03-29T13:02:54;4.63;;;2.75;;
67747;SDS011;54543;50.712;6.070;2024-03-29T13:05:19;4.10;;;2.17;;
67747;SDS011;54543;50.712;6.070;2024-03-29T13:07:45;5.25;;;3.00;;
67747;SDS011;54543;50.712;6.070;2024-03-29T13:10:11;3.45;;;1.92;;
67747;SDS011;54543;50.712;6.070;2024-03-29T13:12:49;2.95;;;1.90;;
67747;SDS011;54543;50.712;6.070;2024-03-29T13:15:21;2.50;;;1.42;;
67747;SDS011;54543;50.712;6.070;2024-03-29T13:17:52;2.97;;;1.58;;
67747;SDS011;54543;50.712;6.070;2024-03-29T13:20:19;3.88;;;2.10;;
67747;SDS011;54543;50.712;6.070;2024-03-29T13:22:45;4.53;;;2.00;;
67747;SDS011;54543;50.712;6.070;2024-03-29T13:25:13;4.53;;;2.90;;
67747;SDS011;54543;50.712;6.070;2024-03-29T13:27:39;6.55;;;3.40;;
67747;SDS011;54543;50.712;6.070;2024-03-29T13:30:06;6.45;;;3.55;;
67747;SDS011;54543;50.712;6.070;2024-03-29T13:32:32;9.10;;;4.97;;
67747;SDS011;54543;50.712;6.070;2024-03-29T13:34:59;5.75;;;3.60;;
67747;SDS011;54543;50.712;6.070;2024-03-29T13:37:25;4.45;;;2.40;;
67747;SDS011;54543;50.712;6.070;2024-03-29T13:39:55;3.55;;;2.03;;
67747;SDS011;54543;50.712;6.070;2024-03-29T13:42:20;3.38;;;1.70;;
67747;SDS011;54543;50.712;6.070;2024-03-29T13:44:50;1.30;;;1.10;;
67747;SDS011;54543;50.712;6.070;2024-03-29T13:47:17;2.45;;;1.58;;
67747;SDS011;54543;50.712;6.070;2024-03-29T13:49:43;2.85;;;1.60;;
67747;SDS011;54543;50.712;6.070;2024-03-29T13:52:09;2.35;;;1.42;;
67747;SDS011;54543;50.712;6.070;2024-03-29T13:54:35;2.38;;;1.33;;
67747;SDS011;54543;50.712;6.070;2024-03-29T13:57:01;2.45;;;1.48;;
67747;SDS011;54543;50.712;6.070;2024-03-29T13:59:29;4.90;;;2.45;;
67747;SDS011;54543;50.712;6.070;2024-03-29T14:01:55;2.50;;;1.50;;
67747;SDS011;54543;50.712;6.070;2024-03-29T14:04:21;1.83;;;1.13;;
67747;SDS011;54543;50.712;6.070;2024-03-29T14:06:47;3.03;;;1.92;;
67747;SDS011;54543;50.712;6.070;2024-03-29T14:09:13;3.05;;;1.73;;
67747;SDS011;54543;50.712;6.070;2024-03-29T14:11:39;4.72;;;2.50;;
67747;SDS011;54543;50.712;6.070;2024-03-29T14:14:04;2.33;;;1.50;;
67747;SDS011;54543;50.712;6.070;2024-03-29T14:16:33;2.38;;;1.60;;
67747;SDS011;54543;50.712;6.070;2024-03-29T14:18:58;2.63;;;1.70;;
67747;SDS011;54543;50.712;6.070;2024-03-29T14:21:24;3.97;;;1.90;;
67747;SDS011;54543;50.712;6.070;2024-03-29T14:23:49;5.20;;;2.60;;
67747;SDS011;54543;50.712;6.070;2024-03-29T14:26:15;4.25;;;2.53;;
67747;SDS011;54543;50.712;6.070;2024-03-29T14:28:42;4.20;;;2.47;;
67747;SDS011;54543;50.712;6.070;2024-03-29T14:31:07;7.40;;;3.45;;
67747;SDS011;54543;50.712;6.070;2024-03-29T14:33:33;3.67;;;2.33;;
67747;SDS011;54543;50.712;6.070;2024-03-29T14:35:59;4.50;;;2.78;;
67747;SDS011;54543;50.712;6.070;2024-03-29T14:38:24;6.35;;;3.08;;
67747;SDS011;54543;50.712;6.070;2024-03-29T14:40:50;3.40;;;2.15;;
67747;SDS011;54543;50.712;6.070;2024-03-29T14:43:15;2.92;;;1.77;;
67747;SDS011;54543;50.712;6.070;2024-03-29T14:45:42;4.40;;;2.10;;
67747;SDS011;54543;50.712;6.070;2024-03-29T14:48:08;5.00;;;3.00;;
67747;SDS011;54543;50.712;6.070;2024-03-29T14:50:33;4.75;;;2.13;;
67747;SDS011;54543;50.712;6.070;2024-03-29T14:52:59;2.67;;;1.65;;
67747;SDS011;54543;50.712;6.070;2024-03-29T14:55:25;4.05;;;2.17;;